createdAt,value
2023-05-01T00:05:27.335Z,13.22
2023-05-01T00:08:57.100Z,13.29
2023-05-01T00:11:47.381Z,13.25
2023-05-01T00:18:22.961Z,13.28
2023-05-01T00:28:47.174Z,13.29
2023-05-01T00:32:20.309Z,13.32
2023-05-01T00:34:59.012Z,13.61
2023-05-01T00:37:53.295Z,13.75
2023-05-01T00:44:55.041Z,13.71
2023-05-01T00:48:02.895Z,13.62
2023-05-01T00:50:53.486Z,13.79
2023-05-01T00:54:09.047Z,13.81
2023-05-01T00:57:05.424Z,13.82
2023-05-01T01:12:12.270Z,13.67
2023-05-01T01:15:38.993Z,13.79
2023-05-01T01:18:32.697Z,13.88
2023-05-01T01:21:18.924Z,13.61
2023-05-01T01:24:13.948Z,13.60
2023-05-01T01:27:19.908Z,13.63
2023-05-01T01:38:09.405Z,13.57
2023-05-01T01:41:48.491Z,13.57
2023-05-01T01:49:07.325Z,13.61
2023-05-01T01:53:24.090Z,13.52
2023-05-01T01:56:41.895Z,13.60
2023-05-01T01:59:25.942Z,13.65
2023-05-01T02:02:07.002Z,13.66
2023-05-01T02:05:11.244Z,13.60
2023-05-01T02:07:56.904Z,13.52
2023-05-01T02:10:45.805Z,13.49
2023-05-01T02:13:22.139Z,13.57
2023-05-01T02:24:10.150Z,13.48
2023-05-01T02:27:27.251Z,13.47
2023-05-01T02:30:38.127Z,13.39
2023-05-01T02:33:36.343Z,13.41
2023-05-01T02:36:45.739Z,13.36
2023-05-01T02:39:30.206Z,13.28
2023-05-01T02:42:44.153Z,13.43
2023-05-01T02:45:30.307Z,13.33
2023-05-01T02:48:54.073Z,13.35
2023-05-01T02:51:41.604Z,13.30
2023-05-01T02:55:20.647Z,13.32
2023-05-01T02:58:00.641Z,13.38
2023-05-01T03:03:22.450Z,13.30
2023-05-01T03:13:40.602Z,13.36
2023-05-01T03:16:12.242Z,13.21
2023-05-01T03:19:35.398Z,13.08
2023-05-01T03:26:02.147Z,13.11
2023-05-01T03:28:54.063Z,13.08
2023-05-01T03:32:04.314Z,13.06
2023-05-01T03:41:17.518Z,13.01
2023-05-01T03:44:26.330Z,13.03
2023-05-01T03:47:15.256Z,13.05
2023-05-01T03:53:39.549Z,13.01
2023-05-01T03:56:31.836Z,13.06
2023-05-01T03:59:26.856Z,13.18
2023-05-01T04:02:01.990Z,13.13
2023-05-01T04:05:01.869Z,13.07
2023-05-01T04:08:02.411Z,13.07
2023-05-01T04:10:48.244Z,13.04
2023-05-01T04:13:43.535Z,13.07
2023-05-01T04:20:03.441Z,13.03
2023-05-01T04:22:43.836Z,12.97
2023-05-01T04:25:43.988Z,12.97
2023-05-01T04:28:33.710Z,12.98
2023-05-01T04:31:10.172Z,12.96
2023-05-01T04:33:41.408Z,12.89
2023-05-01T04:36:41.525Z,12.73
2023-05-01T04:40:00.531Z,12.80
2023-05-01T04:42:46.732Z,12.71
2023-05-01T04:45:31.280Z,12.75
2023-05-01T04:48:13.729Z,12.84
2023-05-01T04:51:13.848Z,12.87
2023-05-01T04:53:45.889Z,12.84
2023-05-01T05:03:32.894Z,12.86
2023-05-01T05:06:13.560Z,12.86
2023-05-01T05:09:28.349Z,12.86
2023-05-01T05:12:23.174Z,12.97
2023-05-01T05:15:16.171Z,12.81
2023-05-01T05:17:59.277Z,12.81
2023-05-01T05:21:18.764Z,12.75
2023-05-01T05:24:39.291Z,12.74
2023-05-01T05:27:41.670Z,12.74
2023-05-01T05:30:26.796Z,12.82
2023-05-01T05:33:06.776Z,12.88
2023-05-01T05:36:24.358Z,12.87
2023-05-01T05:41:33.531Z,12.82
2023-05-01T05:43:28.424Z,12.84
2023-05-01T05:47:15.969Z,12.86
2023-05-01T05:50:39.091Z,12.89
2023-05-01T06:01:58.323Z,12.95
2023-05-01T06:05:42.981Z,12.93
2023-05-01T06:12:11.255Z,12.95
2023-05-01T06:15:11.003Z,13.04
2023-05-01T06:18:06.474Z,13.06
2023-05-01T06:21:10.815Z,13.16
2023-05-01T06:23:56.901Z,13.19
2023-05-01T06:31:12.755Z,13.10
2023-05-01T06:40:34.135Z,13.27
2023-05-01T06:43:42.031Z,13.25
2023-05-01T06:53:48.079Z,13.48
2023-05-01T06:57:04.224Z,13.49
2023-05-01T07:00:07.399Z,13.41
2023-05-01T07:02:38.313Z,13.43
2023-05-01T07:05:14.247Z,13.41
2023-05-01T07:08:01.268Z,13.41
2023-05-01T07:10:39.907Z,13.45
2023-05-01T07:13:14.293Z,13.24
2023-05-01T07:15:54.696Z,13.40
2023-05-01T07:18:37.265Z,13.30
2023-05-01T07:21:21.263Z,13.31
2023-05-01T07:23:56.565Z,13.28
2023-05-01T07:26:46.426Z,13.28
2023-05-01T07:29:40.908Z,13.34
2023-05-01T07:32:46.466Z,13.27
2023-05-01T07:35:24.112Z,13.31
2023-05-01T07:38:00.133Z,13.33
2023-05-01T07:40:45.508Z,13.25
2023-05-01T07:43:26.939Z,13.32
2023-05-01T07:46:06.640Z,13.32
2023-05-01T07:48:39.092Z,13.37
2023-05-01T07:51:33.124Z,13.37
2023-05-01T07:54:11.117Z,13.41
2023-05-01T07:56:53.302Z,13.44
2023-05-01T07:59:36.689Z,13.45
2023-05-01T08:02:34.998Z,13.47
2023-05-01T08:05:25.872Z,13.53
2023-05-01T08:08:15.251Z,13.51
2023-05-01T08:11:03.826Z,13.55
2023-05-01T08:13:39.773Z,13.63
2023-05-01T08:16:16.490Z,13.63
2023-05-01T08:18:52.463Z,13.69
2023-05-01T08:21:19.321Z,13.74
2023-05-01T08:23:46.278Z,13.73
2023-05-01T08:26:16.351Z,13.77
2023-05-01T08:28:43.331Z,13.78
2023-05-01T08:31:12.523Z,13.82
2023-05-01T08:33:44.925Z,13.82
2023-05-01T08:36:14.586Z,13.80
2023-05-01T08:38:41.556Z,13.86
2023-05-01T08:41:09.146Z,13.91
2023-05-01T08:43:41.413Z,13.96
2023-05-01T08:46:10.159Z,13.99
2023-05-01T08:48:42.158Z,14.04
2023-05-01T08:51:10.421Z,14.02
2023-05-01T08:53:40.429Z,14.02
2023-05-01T08:56:13.608Z,14.04
2023-05-01T08:58:43.739Z,14.02
2023-05-01T09:01:16.164Z,14.06
2023-05-01T09:03:45.560Z,14.06
2023-05-01T09:06:13.427Z,14.08
2023-05-01T09:08:40.719Z,14.08
2023-05-01T09:11:07.968Z,14.02
2023-05-01T09:13:37.238Z,14.05
2023-05-01T09:16:09.777Z,14.08
2023-05-01T09:18:57.478Z,14.10
2023-05-01T09:21:32.092Z,14.10
2023-05-01T09:23:58.963Z,14.15
2023-05-01T09:26:29.540Z,14.20
2023-05-01T09:28:58.376Z,14.20
2023-05-01T09:31:35.056Z,14.26
2023-05-01T09:34:11.697Z,14.30
2023-05-01T09:36:47.113Z,14.34
2023-05-01T09:39:22.909Z,14.38
2023-05-01T09:41:57.852Z,14.38
2023-05-01T09:44:35.787Z,14.43
2023-05-01T09:47:03.588Z,14.52
2023-05-01T09:49:47.993Z,14.48
2023-05-01T09:52:15.240Z,14.54
2023-05-01T09:54:42.502Z,14.59
2023-05-01T09:57:10.024Z,14.61
2023-05-01T09:59:36.927Z,14.61
2023-05-01T10:02:03.893Z,14.64
2023-05-01T10:04:32.392Z,14.65
2023-05-01T10:07:14.852Z,14.59
2023-05-01T10:09:42.307Z,14.72
2023-05-01T10:12:09.229Z,14.75
2023-05-01T10:14:56.582Z,14.70
2023-05-01T10:17:23.752Z,14.80
2023-05-01T10:19:53.753Z,14.83
2023-05-01T10:22:20.667Z,14.83
2023-05-01T10:24:47.844Z,14.87
2023-05-01T10:27:17.610Z,14.88
2023-05-01T10:29:47.218Z,14.93
2023-05-01T10:32:14.384Z,14.96
2023-05-01T10:34:48.943Z,14.96
2023-05-01T10:37:23.281Z,15.02
2023-05-01T10:39:49.984Z,15.10
2023-05-01T10:42:17.912Z,15.18
2023-05-01T10:44:46.231Z,15.22
2023-05-01T10:47:25.397Z,15.15
2023-05-01T10:50:21.764Z,15.07
2023-05-01T10:53:10.882Z,15.10
2023-05-01T10:55:43.425Z,15.17
2023-05-01T10:58:12.260Z,15.22
2023-05-01T11:00:39.074Z,15.21
2023-05-01T11:03:21.086Z,15.18
2023-05-01T11:06:08.468Z,15.22
2023-05-01T11:08:37.700Z,15.35
2023-05-01T11:11:19.822Z,15.36
2023-05-01T11:13:59.311Z,15.37
2023-05-01T11:16:38.904Z,15.43
2023-05-01T11:19:09.790Z,15.53
2023-05-01T11:21:38.928Z,15.60
2023-05-01T11:24:12.265Z,15.67
2023-05-01T11:26:40.815Z,15.74
2023-05-01T11:29:11.440Z,15.75
2023-05-01T11:31:41.899Z,15.75
2023-05-01T11:34:09.213Z,15.66
2023-05-01T11:36:57.722Z,15.57
2023-05-01T11:39:24.722Z,15.61
2023-05-01T11:42:06.762Z,15.57
2023-05-01T11:44:35.836Z,15.62
2023-05-01T11:47:02.729Z,15.59
2023-05-01T11:49:29.730Z,15.58
2023-05-01T11:51:59.605Z,15.70
2023-05-01T11:54:26.908Z,15.63
2023-05-01T11:57:00.837Z,15.62
2023-05-01T11:59:30.668Z,15.68
2023-05-01T12:01:58.311Z,15.69
2023-05-01T12:04:32.450Z,15.75
2023-05-01T12:06:59.710Z,15.75
2023-05-01T12:09:29.834Z,15.76
2023-05-01T12:12:01.159Z,15.78
2023-05-01T12:14:28.334Z,15.83
2023-05-01T12:16:55.699Z,15.82
2023-05-01T12:19:23.977Z,15.79
2023-05-01T12:22:05.884Z,15.74
2023-05-01T12:24:32.653Z,15.79
2023-05-01T12:27:03.596Z,15.80
2023-05-01T12:29:44.907Z,15.81
2023-05-01T12:32:12.838Z,15.92
2023-05-01T12:34:40.405Z,15.98
2023-05-01T12:37:08.951Z,15.98
2023-05-01T12:39:40.279Z,15.89
2023-05-01T12:42:13.302Z,15.98
2023-05-01T12:44:39.852Z,15.74
2023-05-01T12:47:08.024Z,15.88
2023-05-01T12:49:37.049Z,15.91
2023-05-01T12:52:09.437Z,15.93
2023-05-01T12:54:38.111Z,15.89
2023-05-01T12:57:14.858Z,15.91
2023-05-01T12:59:43.528Z,15.96
2023-05-01T13:02:12.549Z,16.00
2023-05-01T13:04:39.708Z,16.03
2023-05-01T13:07:15.089Z,15.97
2023-05-01T13:09:55.961Z,16.02
2023-05-01T13:12:24.339Z,16.16
2023-05-01T13:14:51.382Z,16.18
2023-05-01T13:17:32.947Z,16.09
2023-05-01T13:20:02.179Z,16.18
2023-05-01T13:22:34.121Z,16.16
2023-05-01T13:25:03.816Z,16.16
2023-05-01T13:27:32.225Z,16.16
2023-05-01T13:29:59.896Z,16.16
2023-05-01T13:32:27.402Z,16.17
2023-05-01T13:34:54.433Z,16.20
2023-05-01T13:37:21.436Z,16.26
2023-05-01T13:39:48.283Z,16.31
2023-05-01T13:42:25.182Z,16.27
2023-05-01T13:44:54.252Z,16.34
2023-05-01T13:47:25.844Z,16.33
2023-05-01T13:49:52.759Z,16.35
2023-05-01T13:52:20.384Z,16.35
2023-05-01T13:54:48.547Z,16.38
2023-05-01T13:57:17.493Z,16.39
2023-05-01T13:59:45.568Z,16.38
2023-05-01T14:02:26.979Z,16.36
2023-05-01T14:04:58.337Z,16.49
2023-05-01T14:07:28.980Z,16.51
2023-05-01T14:10:06.256Z,16.57
2023-05-01T14:12:33.493Z,16.60
2023-05-01T14:15:04.335Z,16.64
2023-05-01T14:17:34.711Z,16.65
2023-05-01T14:20:04.770Z,16.62
2023-05-01T14:22:45.554Z,16.57
2023-05-01T14:25:22.367Z,16.62
2023-05-01T14:27:49.572Z,16.62
2023-05-01T14:30:27.380Z,16.59
2023-05-01T14:32:54.756Z,16.61
2023-05-01T14:35:23.122Z,16.60
2023-05-01T14:37:50.373Z,16.62
2023-05-01T14:40:18.824Z,16.67
2023-05-01T14:42:49.259Z,16.74
2023-05-01T14:45:19.327Z,16.82
2023-05-01T14:47:48.072Z,16.91
2023-05-01T14:50:24.981Z,16.92
2023-05-01T14:53:01.216Z,16.89
2023-05-01T14:55:31.148Z,16.84
2023-05-01T14:57:58.067Z,16.86
2023-05-01T15:00:26.713Z,16.90
2023-05-01T15:02:56.285Z,16.92
2023-05-01T15:05:26.725Z,16.93
2023-05-01T15:08:02.410Z,16.98
2023-05-01T15:10:29.422Z,16.97
2023-05-01T15:13:01.335Z,16.80
2023-05-01T15:15:32.350Z,16.61
2023-05-01T15:18:03.898Z,16.64
2023-05-01T15:20:31.418Z,16.70
2023-05-01T15:22:58.274Z,16.72
2023-05-01T15:25:25.264Z,16.75
2023-05-01T15:27:52.259Z,16.75
2023-05-01T15:30:19.309Z,16.75
2023-05-01T15:32:46.371Z,16.74
2023-05-01T15:35:13.437Z,16.71
2023-05-01T15:37:40.717Z,16.65
2023-05-01T15:40:08.270Z,16.61
2023-05-01T15:42:35.132Z,16.62
2023-05-01T15:45:03.459Z,16.59
2023-05-01T15:47:31.193Z,16.59
2023-05-01T15:50:00.759Z,16.60
2023-05-01T15:52:36.003Z,16.62
2023-05-01T15:55:11.094Z,16.62
2023-05-01T15:58:02.265Z,16.63
2023-05-01T16:00:35.374Z,16.63
2023-05-01T16:03:05.732Z,16.50
2023-05-01T16:05:35.720Z,16.67
2023-05-01T16:08:13.063Z,16.66
2023-05-01T16:10:43.666Z,16.70
2023-05-01T16:13:26.651Z,16.76
2023-05-01T16:15:56.786Z,16.76
2023-05-01T16:18:30.853Z,16.75
2023-05-01T16:20:59.991Z,16.77
2023-05-01T16:23:27.445Z,16.77
2023-05-01T16:25:59.426Z,16.79
2023-05-01T16:28:30.507Z,16.78
2023-05-01T16:30:58.241Z,16.80
2023-05-01T16:33:25.513Z,16.76
2023-05-01T16:35:58.857Z,16.76
2023-05-01T16:38:27.462Z,16.75
2023-05-01T16:40:57.300Z,16.75
2023-05-01T16:43:24.319Z,16.74
2023-05-01T16:45:54.013Z,16.73
2023-05-01T16:48:23.685Z,16.70
2023-05-01T16:50:51.008Z,16.70
2023-05-01T16:53:18.205Z,16.68
2023-05-01T16:55:44.990Z,16.67
2023-05-01T16:58:11.915Z,16.68
2023-05-01T17:00:38.883Z,16.66
2023-05-01T17:03:05.828Z,16.66
2023-05-01T17:05:32.651Z,16.64
2023-05-01T17:08:02.216Z,16.64
2023-05-01T17:10:29.044Z,16.62
2023-05-01T17:12:56.041Z,16.62
2023-05-01T17:15:26.132Z,16.59
2023-05-01T17:17:53.045Z,16.58
2023-05-01T17:20:20.098Z,16.57
2023-05-01T17:22:46.887Z,16.55
2023-05-01T17:25:13.845Z,16.54
2023-05-01T17:27:40.826Z,16.52
2023-05-01T17:30:07.903Z,16.50
2023-05-01T17:32:37.427Z,16.49
2023-05-01T17:35:06.663Z,16.48
2023-05-01T17:37:33.466Z,16.45
2023-05-01T17:40:00.737Z,16.46
2023-05-01T17:42:28.020Z,16.43
2023-05-01T17:44:54.912Z,16.42
2023-05-01T17:47:26.190Z,16.39
2023-05-01T17:49:53.197Z,16.37
2023-05-01T17:52:19.955Z,16.33
2023-05-01T17:54:46.868Z,16.29
2023-05-01T17:57:13.716Z,16.27
2023-05-01T17:59:40.470Z,16.19
2023-05-01T18:02:08.378Z,16.18
2023-05-01T18:04:36.200Z,16.17
2023-05-01T18:07:04.242Z,16.14
2023-05-01T18:09:31.399Z,16.13
2023-05-01T18:11:58.339Z,16.06
2023-05-01T18:14:25.133Z,16.04
2023-05-01T18:16:52.865Z,16.09
2023-05-01T18:19:22.139Z,16.02
2023-05-01T18:21:49.083Z,15.97
2023-05-01T18:24:15.871Z,15.98
2023-05-01T18:26:42.655Z,15.96
2023-05-01T18:29:09.471Z,15.95
2023-05-01T18:31:38.329Z,15.95
2023-05-01T18:34:07.151Z,15.94
2023-05-01T18:36:33.989Z,15.88
2023-05-01T18:39:01.861Z,15.88
2023-05-01T18:41:28.641Z,15.91
2023-05-01T18:43:57.892Z,15.87
2023-05-01T18:46:24.974Z,15.81
2023-05-01T18:48:54.242Z,15.74
2023-05-01T18:51:21.196Z,15.75
2023-05-01T18:53:48.248Z,15.72
2023-05-01T18:56:15.152Z,15.73
2023-05-01T18:58:42.026Z,15.69
2023-05-01T19:01:09.372Z,15.68
2023-05-01T19:03:36.285Z,15.64
2023-05-01T19:06:03.139Z,15.66
2023-05-01T19:08:31.741Z,15.62
2023-05-01T19:11:04.033Z,15.57
2023-05-01T19:13:36.496Z,15.52
2023-05-01T19:16:06.477Z,15.52
2023-05-01T19:18:37.563Z,15.48
2023-05-01T19:21:13.845Z,15.45
2023-05-01T19:23:49.008Z,15.38
2023-05-01T19:26:22.669Z,15.41
2023-05-01T19:28:50.045Z,15.39
2023-05-01T19:31:22.227Z,15.36
2023-05-01T19:34:02.386Z,15.27
2023-05-01T19:36:36.648Z,15.25
2023-05-01T19:39:07.053Z,15.20
2023-05-01T19:41:47.290Z,15.24
2023-05-01T19:44:14.497Z,15.28
2023-05-01T19:46:57.102Z,15.22
2023-05-01T19:49:30.818Z,15.22
2023-05-01T19:52:06.573Z,15.26
2023-05-01T19:54:49.169Z,15.19
2023-05-01T19:57:19.010Z,15.16
2023-05-01T19:59:59.168Z,15.09
2023-05-01T20:02:32.732Z,15.09
2023-05-01T20:05:08.648Z,15.12
2023-05-01T20:07:37.958Z,15.07
2023-05-01T20:10:10.490Z,14.95
2023-05-01T20:12:38.410Z,14.88
2023-05-01T20:15:13.279Z,14.86
2023-05-01T20:17:45.365Z,14.83
2023-05-01T20:20:17.265Z,14.79
2023-05-01T20:22:48.639Z,14.77
2023-05-01T20:25:25.872Z,14.77
2023-05-01T20:27:59.872Z,14.60
2023-05-01T20:30:26.739Z,14.64
2023-05-01T20:32:53.718Z,14.63
2023-05-01T20:35:20.888Z,14.65
2023-05-01T20:37:52.540Z,14.54
2023-05-01T20:40:24.480Z,14.61
2023-05-01T20:42:51.997Z,14.53
2023-05-01T20:45:18.991Z,14.49
2023-05-01T20:47:46.728Z,14.47
2023-05-01T20:50:13.678Z,14.51
2023-05-01T20:52:41.196Z,14.47
2023-05-01T20:55:11.582Z,14.45
2023-05-01T20:57:38.988Z,14.44
2023-05-01T21:00:07.676Z,14.42
2023-05-01T21:02:38.017Z,14.38
2023-05-01T21:05:05.884Z,14.34
2023-05-01T21:07:41.596Z,14.31
2023-05-01T21:10:10.749Z,14.33
2023-05-01T21:12:37.685Z,14.33
2023-05-01T21:15:04.830Z,14.32
2023-05-01T21:17:36.227Z,14.26
2023-05-01T21:20:05.669Z,14.23
2023-05-01T21:22:32.526Z,14.26
2023-05-01T21:25:00.094Z,14.23
2023-05-01T21:27:27.509Z,14.22
2023-05-01T21:29:57.643Z,14.22
2023-05-01T21:32:34.798Z,14.16
2023-05-01T21:35:02.131Z,14.20
2023-05-01T21:37:29.532Z,14.19
2023-05-01T21:40:00.586Z,14.06
2023-05-01T21:42:37.905Z,14.18
2023-05-01T21:45:06.886Z,14.20
2023-05-01T21:47:44.290Z,14.11
2023-05-01T21:50:13.451Z,14.13
2023-05-01T21:52:40.996Z,14.11
2023-05-01T21:55:11.234Z,14.05
2023-05-01T21:57:39.634Z,14.02
2023-05-01T22:00:09.889Z,14.01
2023-05-01T22:02:46.622Z,13.92
2023-05-01T22:05:14.848Z,14.03
2023-05-01T22:07:42.335Z,14.05
2023-05-01T22:10:11.520Z,14.02
2023-05-01T22:12:39.844Z,14.06
2023-05-01T22:15:08.120Z,14.02
2023-05-01T22:17:35.070Z,14.03
2023-05-01T22:20:02.085Z,14.04
2023-05-01T22:22:28.982Z,13.95
2023-05-01T22:24:56.047Z,13.92
2023-05-01T22:27:22.953Z,13.88
2023-05-01T22:29:49.778Z,13.91
2023-05-01T22:32:16.766Z,13.87
2023-05-01T22:34:43.610Z,13.85
2023-05-01T22:37:10.696Z,13.81
2023-05-01T22:39:37.452Z,13.82
2023-05-01T22:42:04.960Z,13.85
2023-05-01T22:44:31.969Z,13.80
2023-05-01T22:47:01.680Z,13.80
2023-05-01T22:49:28.705Z,13.78
2023-05-01T22:51:55.988Z,13.75
2023-05-01T22:54:23.060Z,13.70
2023-05-01T22:56:50.424Z,13.63
2023-05-01T22:59:17.662Z,13.58
2023-05-01T23:01:45.116Z,13.60
2023-05-01T23:04:12.804Z,13.54
2023-05-01T23:06:40.239Z,13.52
2023-05-01T23:09:07.401Z,13.57
2023-05-01T23:11:34.292Z,13.60
2023-05-01T23:14:01.381Z,13.56
2023-05-01T23:16:31.849Z,13.61
2023-05-01T23:18:58.640Z,13.53
2023-05-01T23:21:25.480Z,13.53
2023-05-01T23:23:52.597Z,13.49
2023-05-01T23:26:26.556Z,13.40
2023-05-01T23:28:53.549Z,13.44
2023-05-01T23:31:26.053Z,13.30
2023-05-01T23:33:53.631Z,13.34
2023-05-01T23:36:20.685Z,13.37
2023-05-01T23:38:48.214Z,13.35
2023-05-01T23:41:15.427Z,13.31
2023-05-01T23:43:42.462Z,13.32
2023-05-01T23:46:09.314Z,13.31
2023-05-01T23:48:36.312Z,13.30
2023-05-01T23:51:03.438Z,13.33
2023-05-01T23:53:30.698Z,13.31
2023-05-01T23:55:57.648Z,13.32
2023-05-01T23:58:24.476Z,13.31
